createdAt,value
2023-10-10T00:00:12.181Z,38
2023-10-10T00:02:03.387Z,40
2023-10-10T00:03:03.027Z,38
2023-10-10T00:04:02.850Z,40
2023-10-10T00:05:04.099Z,39
2023-10-10T00:07:03.269Z,42
2023-10-10T00:08:03.043Z,39
2023-10-10T00:10:04.672Z,39
2023-10-10T00:12:02.644Z,40
2023-10-10T00:13:03.538Z,45
2023-10-10T00:14:03.190Z,42
2023-10-10T00:15:03.453Z,40
2023-10-10T00:16:03.111Z,39
2023-10-10T00:17:03.109Z,40
2023-10-10T00:18:03.197Z,41
2023-10-10T00:20:04.293Z,40
2023-10-10T00:22:03.444Z,42
2023-10-10T00:23:03.013Z,42
2023-10-10T00:25:03.564Z,42
2023-10-10T00:26:02.956Z,40
2023-10-10T00:27:03.565Z,43
2023-10-10T00:28:02.983Z,42
2023-10-10T00:29:02.998Z,46
2023-10-10T00:30:03.450Z,45
2023-10-10T00:31:02.931Z,45
2023-10-10T00:32:03.792Z,45
2023-10-10T00:33:03.492Z,42
2023-10-10T00:34:32.668Z,42
2023-10-10T00:37:03.158Z,45
2023-10-10T00:38:03.171Z,44
2023-10-10T00:40:04.534Z,43
2023-10-10T00:42:03.525Z,40
2023-10-10T00:43:02.936Z,37
2023-10-10T00:44:03.798Z,38
2023-10-10T00:45:03.973Z,41
2023-10-10T00:47:03.821Z,43
2023-10-10T00:48:04.194Z,43
2023-10-10T00:50:04.075Z,42
2023-10-10T00:52:03.394Z,46
2023-10-10T00:53:02.909Z,45
2023-10-10T00:54:03.674Z,44
2023-10-10T00:55:03.978Z,43
2023-10-10T00:57:03.025Z,45
2023-10-10T00:58:02.885Z,43
2023-10-10T00:59:03.634Z,44
2023-10-10T01:00:07.488Z,47
2023-10-10T01:02:03.869Z,48
2023-10-10T01:03:04.375Z,48
2023-10-10T01:04:03.003Z,46
2023-10-10T01:05:03.567Z,43
2023-10-10T01:07:02.879Z,45
2023-10-10T01:08:03.942Z,46
2023-10-10T01:09:03.776Z,45
2023-10-10T01:10:04.662Z,47
2023-10-10T01:12:02.854Z,48
2023-10-10T01:13:03.422Z,47
2023-10-10T01:14:03.138Z,46
2023-10-10T01:15:03.279Z,48
2023-10-10T01:16:02.772Z,48
2023-10-10T01:17:04.042Z,47
2023-10-10T01:19:03.197Z,47
2023-10-10T01:20:03.855Z,49
2023-10-10T01:21:03.382Z,49
2023-10-10T01:23:03.654Z,50
2023-10-10T01:24:03.483Z,46
2023-10-10T01:25:03.504Z,47
2023-10-10T01:26:03.106Z,49
2023-10-10T01:28:03.517Z,49
2023-10-10T01:29:03.033Z,47
2023-10-10T01:30:03.350Z,49
2023-10-10T01:31:03.037Z,51
2023-10-10T01:32:02.750Z,48
2023-10-10T01:33:03.597Z,47
2023-10-10T01:34:03.361Z,51
2023-10-10T01:35:03.759Z,50
2023-10-10T01:38:03.644Z,49
2023-10-10T01:39:03.262Z,48
2023-10-10T01:40:04.132Z,51
2023-10-10T01:42:03.525Z,48
2023-10-10T01:43:03.092Z,50
2023-10-10T01:44:02.747Z,50
2023-10-10T01:45:04.806Z,52
2023-10-10T01:47:03.121Z,52
2023-10-10T01:48:02.675Z,49
2023-10-10T01:49:03.234Z,52
2023-10-10T01:50:03.872Z,52
2023-10-10T01:51:03.491Z,52
2023-10-10T01:53:03.859Z,51
2023-10-10T01:54:03.493Z,52
2023-10-10T01:55:03.494Z,53
2023-10-10T01:56:02.979Z,51
2023-10-10T01:58:03.101Z,53
2023-10-10T01:59:03.004Z,53
2023-10-10T02:00:03.512Z,53
2023-10-10T02:01:03.179Z,54
2023-10-10T02:02:03.214Z,54
2023-10-10T02:03:03.713Z,54
2023-10-10T02:05:03.948Z,55
2023-10-10T02:06:03.533Z,53
2023-10-10T02:08:02.996Z,54
2023-10-10T02:09:03.224Z,54
2023-10-10T02:10:03.898Z,55
2023-10-10T02:11:03.761Z,52
2023-10-10T02:12:03.530Z,52
2023-10-10T02:13:03.065Z,54
2023-10-10T02:14:02.987Z,54
2023-10-10T02:15:03.130Z,53
2023-10-10T02:16:02.484Z,54
2023-10-10T02:17:03.171Z,57
2023-10-10T02:18:02.882Z,53
2023-10-10T02:19:03.445Z,56
2023-10-10T02:20:03.876Z,55
2023-10-10T02:21:03.406Z,54
2023-10-10T02:22:03.054Z,56
2023-10-10T02:23:03.240Z,55
2023-10-10T02:24:02.938Z,58
2023-10-10T02:25:04.116Z,55
2023-10-10T02:27:03.128Z,56
2023-10-10T02:28:02.731Z,56
2023-10-10T02:29:03.903Z,56
2023-10-10T02:30:05.528Z,57
2023-10-10T02:32:02.826Z,55
2023-10-10T02:33:03.668Z,54
2023-10-10T02:34:03.325Z,54
2023-10-10T02:35:03.683Z,54
2023-10-10T02:36:03.129Z,54
2023-10-10T02:38:03.607Z,54
2023-10-10T02:39:03.436Z,53
2023-10-10T02:40:03.961Z,54
2023-10-10T02:41:03.615Z,55
2023-10-10T02:42:03.363Z,53
2023-10-10T02:43:02.796Z,51
2023-10-10T02:44:03.669Z,52
2023-10-10T02:45:03.785Z,51
2023-10-10T02:46:03.520Z,51
2023-10-10T02:49:02.787Z,50
2023-10-10T02:50:04.410Z,54
2023-10-10T02:52:03.610Z,54
2023-10-10T02:53:03.553Z,57
2023-10-10T02:55:03.199Z,60
2023-10-10T02:56:03.139Z,57
2023-10-10T02:58:03.198Z,61
2023-10-10T02:59:02.773Z,64
2023-10-10T03:00:05.141Z,64
2023-10-10T03:02:03.748Z,66
2023-10-10T03:03:03.984Z,66
2023-10-10T03:05:04.306Z,65
2023-10-10T03:07:02.672Z,68
2023-10-10T03:08:03.554Z,66
2023-10-10T03:09:04.263Z,68
2023-10-10T03:11:03.468Z,68
2023-10-10T03:13:02.665Z,69
2023-10-10T03:14:03.543Z,70
2023-10-10T03:15:03.818Z,68
2023-10-10T03:16:03.772Z,71
2023-10-10T03:17:03.562Z,69
2023-10-10T03:18:03.496Z,71
2023-10-10T03:20:03.834Z,71
2023-10-10T03:21:03.430Z,72
2023-10-10T03:22:03.027Z,72
2023-10-10T03:24:03.584Z,75
2023-10-10T03:25:03.465Z,74
2023-10-10T03:27:03.538Z,72
2023-10-10T03:29:03.761Z,69
2023-10-10T03:30:03.940Z,71
2023-10-10T03:32:03.356Z,69
2023-10-10T03:33:03.539Z,71
2023-10-10T03:35:03.656Z,69
2023-10-10T03:36:03.298Z,70
2023-10-10T03:38:03.761Z,70
2023-10-10T03:40:04.241Z,71
2023-10-10T03:42:03.238Z,69
2023-10-10T03:43:02.813Z,68
2023-10-10T03:44:03.726Z,66
2023-10-10T03:45:03.832Z,68
2023-10-10T03:46:03.464Z,69
2023-10-10T03:47:03.309Z,67
2023-10-10T03:48:03.425Z,70
2023-10-10T03:50:04.795Z,67
2023-10-10T03:52:03.010Z,67
2023-10-10T03:53:02.670Z,67
2023-10-10T03:54:03.313Z,68
2023-10-10T03:55:03.567Z,68
2023-10-10T03:56:03.012Z,67
2023-10-10T03:58:03.142Z,68
2023-10-10T03:59:02.771Z,68
2023-10-10T04:00:04.802Z,68
2023-10-10T04:02:03.606Z,67
2023-10-10T04:03:03.569Z,65
2023-10-10T04:05:29.301Z,66
2023-10-10T04:07:02.993Z,64
2023-10-10T04:08:03.001Z,65
2023-10-10T04:09:03.056Z,67
2023-10-10T04:10:16.082Z,65
2023-10-10T04:12:04.041Z,64
2023-10-10T04:13:03.474Z,64
2023-10-10T04:14:03.418Z,67
2023-10-10T04:15:03.880Z,65
2023-10-10T04:16:03.490Z,65
2023-10-10T04:17:03.871Z,65
2023-10-10T04:18:04.026Z,64
2023-10-10T04:20:03.786Z,69
2023-10-10T04:21:03.275Z,63
2023-10-10T04:23:03.665Z,64
2023-10-10T04:24:03.290Z,65
2023-10-10T04:25:03.882Z,65
2023-10-10T04:26:03.392Z,66
2023-10-10T04:28:03.360Z,64
2023-10-10T04:29:02.865Z,66
2023-10-10T04:30:04.393Z,67
2023-10-10T04:32:03.710Z,61
2023-10-10T04:33:03.405Z,63
2023-10-10T04:34:02.994Z,62
2023-10-10T04:35:03.452Z,60
2023-10-10T04:36:03.538Z,61
2023-10-10T04:37:03.135Z,61
2023-10-10T04:38:03.066Z,59
2023-10-10T04:40:04.392Z,61
2023-10-10T04:42:03.363Z,61
2023-10-10T04:43:02.836Z,61
2023-10-10T04:44:03.564Z,61
2023-10-10T04:45:03.733Z,63
2023-10-10T04:46:03.407Z,64
2023-10-10T04:47:03.070Z,61
2023-10-10T04:48:03.258Z,65
2023-10-10T04:49:02.868Z,64
2023-10-10T04:50:04.269Z,64
2023-10-10T04:52:03.312Z,58
2023-10-10T04:53:02.964Z,62
2023-10-10T04:55:03.679Z,61
2023-10-10T04:56:03.705Z,61
2023-10-10T04:57:03.287Z,65
2023-10-10T04:59:04.066Z,62
2023-10-10T05:00:06.094Z,65
2023-10-10T05:02:03.394Z,63
2023-10-10T05:03:03.118Z,64
2023-10-10T05:04:03.044Z,66
2023-10-10T05:05:03.563Z,62
2023-10-10T05:06:03.434Z,62
2023-10-10T05:08:03.447Z,66
2023-10-10T05:09:04.023Z,64
2023-10-10T05:11:03.627Z,67
2023-10-10T05:13:02.892Z,64
2023-10-10T05:14:03.633Z,62
2023-10-10T05:15:03.766Z,67
2023-10-10T05:16:03.276Z,65
2023-10-10T05:17:03.474Z,61
2023-10-10T05:18:03.552Z,65
2023-10-10T05:19:04.680Z,60
2023-10-10T05:21:03.137Z,63
2023-10-10T05:22:02.670Z,66
2023-10-10T05:23:03.439Z,62
2023-10-10T05:24:03.057Z,60
2023-10-10T05:25:03.008Z,60
2023-10-10T05:26:02.538Z,62
2023-10-10T05:27:03.152Z,62
2023-10-10T05:28:02.711Z,66
2023-10-10T05:29:03.434Z,69
2023-10-10T05:30:03.696Z,66
2023-10-10T05:31:03.442Z,65
2023-10-10T05:32:03.094Z,65
2023-10-10T05:33:03.859Z,66
2023-10-10T05:35:06.178Z,65
2023-10-10T05:36:02.850Z,65
2023-10-10T05:37:03.418Z,62
2023-10-10T05:38:02.906Z,62
2023-10-10T05:39:03.723Z,68
2023-10-10T05:40:04.207Z,69
2023-10-10T05:42:03.501Z,67
2023-10-10T05:43:03.000Z,66
2023-10-10T05:45:03.544Z,68
2023-10-10T05:46:03.166Z,67
2023-10-10T05:48:03.750Z,69
2023-10-10T05:49:03.340Z,67
2023-10-10T05:50:03.682Z,67
2023-10-10T05:51:03.328Z,66
2023-10-10T05:53:03.532Z,66
2023-10-10T05:55:03.352Z,67
2023-10-10T05:56:03.576Z,67
2023-10-10T05:58:02.801Z,65
2023-10-10T05:59:03.590Z,66
2023-10-10T06:00:03.938Z,66
2023-10-10T06:02:03.055Z,65
2023-10-10T06:03:03.119Z,65
2023-10-10T06:04:02.935Z,66
2023-10-10T06:05:04.313Z,65
2023-10-10T06:07:02.716Z,65
2023-10-10T06:08:03.868Z,64
2023-10-10T06:09:03.988Z,65
2023-10-10T06:11:03.210Z,67
2023-10-10T06:12:03.282Z,65
2023-10-10T06:13:02.728Z,66
2023-10-10T06:14:03.774Z,66
2023-10-10T06:15:04.147Z,67
2023-10-10T06:17:03.628Z,69
2023-10-10T06:18:03.849Z,65
2023-10-10T06:19:03.519Z,66
2023-10-10T06:20:03.909Z,66
2023-10-10T06:21:10.981Z,68
2023-10-10T06:23:03.351Z,68
2023-10-10T06:24:02.792Z,61
2023-10-10T06:25:03.727Z,68
2023-10-10T06:26:03.359Z,70
2023-10-10T06:28:02.447Z,65
2023-10-10T06:29:03.279Z,68
2023-10-10T06:30:03.674Z,67
2023-10-10T06:32:03.849Z,66
2023-10-10T06:33:03.726Z,65
2023-10-10T06:34:03.825Z,68
2023-10-10T06:35:04.153Z,69
2023-10-10T06:37:03.326Z,67
2023-10-10T06:38:03.066Z,66
2023-10-10T06:39:02.799Z,68
2023-10-10T06:40:04.476Z,68
2023-10-10T06:42:02.734Z,66
2023-10-10T06:43:04.329Z,65
2023-10-10T06:45:03.189Z,59
2023-10-10T06:46:02.978Z,61
2023-10-10T06:47:03.056Z,62
2023-10-10T06:48:03.292Z,61
2023-10-10T06:50:04.864Z,62
2023-10-10T06:52:03.096Z,61
2023-10-10T06:53:02.670Z,60
2023-10-10T06:54:03.410Z,60
2023-10-10T06:55:03.692Z,61
2023-10-10T06:56:03.287Z,61
2023-10-10T06:57:03.127Z,61
2023-10-10T06:59:03.340Z,60
2023-10-10T07:00:03.790Z,58
2023-10-10T07:01:03.184Z,58
2023-10-10T07:03:04.237Z,59
2023-10-10T07:04:02.865Z,59
2023-10-10T07:05:03.974Z,60
2023-10-10T07:07:03.563Z,63
2023-10-10T07:08:03.066Z,57
2023-10-10T07:10:04.469Z,59
2023-10-10T07:12:03.519Z,58
2023-10-10T07:14:03.589Z,60
2023-10-10T07:15:04.624Z,59
2023-10-10T07:17:02.663Z,58
2023-10-10T07:18:03.759Z,58
2023-10-10T07:20:04.251Z,55
2023-10-10T07:22:03.388Z,58
2023-10-10T07:23:02.921Z,57
2023-10-10T07:24:03.530Z,58
2023-10-10T07:25:03.581Z,59
2023-10-10T07:26:03.200Z,55
2023-10-10T07:28:03.182Z,52
2023-10-10T07:29:02.621Z,55
2023-10-10T07:30:04.686Z,55
2023-10-10T07:32:03.307Z,56
2023-10-10T07:33:03.341Z,54
2023-10-10T07:34:02.980Z,53
2023-10-10T07:35:03.430Z,51
2023-10-10T07:36:02.990Z,51
2023-10-10T07:37:02.758Z,54
2023-10-10T07:38:03.480Z,50
2023-10-10T07:39:02.970Z,51
2023-10-10T07:40:04.660Z,49
2023-10-10T07:42:03.306Z,49
2023-10-10T07:43:02.894Z,49
2023-10-10T07:44:03.917Z,49
2023-10-10T07:45:04.931Z,49
2023-10-10T07:47:03.203Z,49
2023-10-10T07:48:03.433Z,50
2023-10-10T07:49:03.951Z,48
2023-10-10T07:50:03.994Z,48
2023-10-10T07:52:03.153Z,49
2023-10-10T07:53:02.667Z,48
2023-10-10T07:54:03.539Z,47
2023-10-10T07:55:03.680Z,46
2023-10-10T07:56:03.316Z,46
2023-10-10T07:57:03.601Z,47
2023-10-10T07:58:03.205Z,46
2023-10-10T08:00:05.092Z,46
2023-10-10T08:02:03.458Z,47
2023-10-10T08:03:03.277Z,47
2023-10-10T08:04:03.672Z,44
2023-10-10T08:05:03.914Z,46
2023-10-10T08:06:03.596Z,48
2023-10-10T08:08:02.859Z,46
2023-10-10T08:09:04.238Z,44
2023-10-10T08:10:04.671Z,47
2023-10-10T08:12:03.190Z,46
2023-10-10T08:13:02.630Z,45
2023-10-10T08:14:03.260Z,45
2023-10-10T08:15:07.718Z,44
2023-10-10T08:16:03.205Z,44
2023-10-10T08:18:03.184Z,40
2023-10-10T08:20:03.821Z,42
2023-10-10T08:21:03.382Z,40
2023-10-10T08:22:04.905Z,42
2023-10-10T08:24:03.081Z,43
2023-10-10T08:25:03.194Z,42
2023-10-10T08:26:02.824Z,39
2023-10-10T08:27:03.373Z,37
2023-10-10T08:28:02.971Z,42
2023-10-10T08:29:03.800Z,40
2023-10-10T08:30:04.044Z,37
2023-10-10T08:32:03.528Z,36
2023-10-10T08:33:03.366Z,34
2023-10-10T08:34:02.931Z,34
2023-10-10T08:35:04.054Z,36
2023-10-10T08:37:03.022Z,35
2023-10-10T08:38:03.854Z,36
2023-10-10T08:39:03.525Z,35
2023-10-10T08:40:04.434Z,34
2023-10-10T08:42:03.293Z,35
2023-10-10T08:43:03.020Z,38
2023-10-10T08:44:03.300Z,34
2023-10-10T08:45:03.426Z,35
2023-10-10T08:46:02.968Z,34
2023-10-10T08:47:03.523Z,35
2023-10-10T08:48:03.578Z,34
2023-10-10T08:49:03.315Z,34
2023-10-10T08:50:03.760Z,34
2023-10-10T08:51:03.351Z,32
2023-10-10T08:52:03.040Z,31
2023-10-10T08:53:02.879Z,35
2023-10-10T08:54:04.005Z,33
2023-10-10T08:55:03.506Z,33
2023-10-10T08:56:04.850Z,34
2023-10-10T08:58:03.215Z,33
2023-10-10T08:59:03.469Z,35
2023-10-10T09:00:04.311Z,33
2023-10-10T09:02:02.606Z,35
2023-10-10T09:03:04.392Z,33
2023-10-10T09:04:03.518Z,34
2023-10-10T09:05:03.584Z,34
2023-10-10T09:06:03.240Z,33
2023-10-10T09:08:03.444Z,35
2023-10-10T09:09:03.377Z,34
2023-10-10T09:10:04.408Z,33
2023-10-10T09:12:03.465Z,33
2023-10-10T09:13:04.018Z,33
2023-10-10T09:15:03.660Z,32
2023-10-10T09:16:03.184Z,30
2023-10-10T09:18:03.869Z,33
2023-10-10T09:19:03.628Z,31
2023-10-10T09:20:03.817Z,31
2023-10-10T09:21:03.262Z,32
2023-10-10T09:23:03.445Z,30
2023-10-10T09:24:03.292Z,33
2023-10-10T09:25:03.344Z,32
2023-10-10T09:26:02.975Z,32
2023-10-10T09:28:03.104Z,30
2023-10-10T09:29:02.705Z,29
2023-10-10T09:30:10.553Z,29
2023-10-10T09:32:02.687Z,29
2023-10-10T09:33:03.970Z,29
2023-10-10T09:34:02.661Z,31
2023-10-10T09:35:04.037Z,35
2023-10-10T09:37:03.307Z,30
2023-10-10T09:38:03.226Z,27
2023-10-10T09:39:02.870Z,29
2023-10-10T09:40:04.659Z,30
2023-10-10T09:42:02.787Z,28
2023-10-10T09:43:03.331Z,28
2023-10-10T09:44:02.850Z,29
2023-10-10T09:45:04.316Z,30
2023-10-10T09:47:03.339Z,27
2023-10-10T09:48:03.106Z,26
2023-10-10T09:49:02.933Z,25
2023-10-10T09:50:03.926Z,26
2023-10-10T09:51:03.448Z,26
2023-10-10T09:53:03.690Z,28
2023-10-10T09:54:03.556Z,28
2023-10-10T09:55:04.032Z,28
2023-10-10T09:57:03.182Z,28
2023-10-10T09:58:03.325Z,27
2023-10-10T10:00:28.882Z,28
2023-10-10T10:02:03.723Z,25
2023-10-10T10:03:03.604Z,25
2023-10-10T10:05:03.713Z,24
2023-10-10T10:06:03.322Z,25
2023-10-10T10:07:08.796Z,25
2023-10-10T10:09:03.121Z,24
2023-10-10T10:10:03.517Z,25
2023-10-10T10:11:03.035Z,25
2023-10-10T10:13:02.735Z,23
2023-10-10T10:14:22.783Z,24
2023-10-10T10:16:02.986Z,23
2023-10-10T10:18:03.771Z,25
2023-10-10T10:20:03.465Z,23
2023-10-10T10:21:02.811Z,22
2023-10-10T10:22:03.489Z,22
2023-10-10T10:23:03.034Z,22
2023-10-10T10:25:04.172Z,22
2023-10-10T10:27:03.293Z,24
2023-10-10T10:28:02.900Z,23
2023-10-10T10:29:03.547Z,24
2023-10-10T10:30:03.277Z,23
2023-10-10T10:31:03.032Z,22
2023-10-10T10:32:03.380Z,25
2023-10-10T10:33:03.408Z,23
2023-10-10T10:34:03.203Z,23
2023-10-10T10:35:03.354Z,23
2023-10-10T10:36:02.927Z,23
2023-10-10T10:37:03.594Z,23
2023-10-10T10:38:03.177Z,23
2023-10-10T10:39:02.900Z,23
2023-10-10T10:40:04.831Z,23
2023-10-10T10:42:03.259Z,24
2023-10-10T10:43:02.898Z,24
2023-10-10T10:44:03.520Z,25
2023-10-10T10:45:03.651Z,22
2023-10-10T10:46:03.321Z,23
2023-10-10T10:47:03.024Z,22
2023-10-10T10:48:03.653Z,33
2023-10-10T10:50:03.368Z,22
2023-10-10T10:51:03.708Z,22
2023-10-10T10:53:02.938Z,22
2023-10-10T10:54:03.753Z,23
2023-10-10T10:55:03.900Z,22
2023-10-10T10:56:03.345Z,22
2023-10-10T10:57:03.767Z,23
2023-10-10T10:58:03.532Z,24
2023-10-10T10:59:03.205Z,24
2023-10-10T11:00:04.914Z,23
2023-10-10T11:02:02.962Z,24
2023-10-10T11:03:03.506Z,24
2023-10-10T11:04:03.209Z,23
2023-10-10T11:05:03.512Z,25
2023-10-10T11:06:03.323Z,25
2023-10-10T11:07:02.858Z,23
2023-10-10T11:08:03.425Z,25
2023-10-10T11:09:03.622Z,24
2023-10-10T11:10:04.050Z,23
2023-10-10T11:11:03.622Z,24
2023-10-10T11:12:10.574Z,24
2023-10-10T11:13:03.066Z,24
2023-10-10T11:15:04.133Z,23
2023-10-10T11:17:03.134Z,24
2023-10-10T11:18:02.795Z,23
2023-10-10T11:19:03.323Z,23
2023-10-10T11:20:03.549Z,26
2023-10-10T11:21:03.101Z,23
2023-10-10T11:23:03.618Z,22
2023-10-10T11:24:03.029Z,21
2023-10-10T11:25:03.341Z,23
2023-10-10T11:26:02.985Z,22
2023-10-10T11:27:03.456Z,22
2023-10-10T11:29:02.606Z,22
2023-10-10T11:30:04.021Z,22
2023-10-10T11:32:02.782Z,22
2023-10-10T11:33:03.931Z,22
2023-10-10T11:34:02.861Z,22
2023-10-10T11:35:04.064Z,21
2023-10-10T11:37:03.582Z,22
2023-10-10T11:38:03.095Z,21
2023-10-10T11:39:02.995Z,21
2023-10-10T11:40:04.034Z,22
2023-10-10T11:42:03.350Z,21
2023-10-10T11:43:03.123Z,22
2023-10-10T11:44:14.095Z,22
2023-10-10T11:46:04.243Z,23
2023-10-10T11:48:03.897Z,22
2023-10-10T11:50:03.739Z,23
2023-10-10T11:51:03.443Z,22
2023-10-10T11:53:03.057Z,22
2023-10-10T11:54:02.898Z,20
2023-10-10T11:55:04.053Z,21
2023-10-10T11:57:03.212Z,21
2023-10-10T11:58:02.977Z,22
2023-10-10T11:59:02.676Z,22
2023-10-10T12:00:29.328Z,23
2023-10-10T12:03:03.512Z,21
2023-10-10T12:05:03.744Z,21
2023-10-10T12:06:03.079Z,22
2023-10-10T12:07:08.227Z,21
2023-10-10T12:09:03.613Z,22
2023-10-10T12:10:04.538Z,21
2023-10-10T12:12:03.467Z,47
2023-10-10T12:13:03.286Z,22
2023-10-10T12:14:03.263Z,21
2023-10-10T12:15:03.603Z,20
2023-10-10T12:16:03.547Z,22
2023-10-10T12:17:03.176Z,22
2023-10-10T12:18:03.664Z,21
2023-10-10T12:19:03.360Z,21
2023-10-10T12:20:04.251Z,22
2023-10-10T12:22:03.312Z,21
2023-10-10T12:23:02.710Z,21
2023-10-10T12:24:04.181Z,19
2023-10-10T12:26:03.599Z,21
2023-10-10T12:27:03.233Z,21
2023-10-10T12:28:03.005Z,19
2023-10-10T12:29:02.747Z,19
2023-10-10T12:30:04.914Z,19
2023-10-10T12:32:03.513Z,19
2023-10-10T12:33:03.201Z,21
2023-10-10T12:35:03.968Z,19
2023-10-10T12:37:03.247Z,23
2023-10-10T12:38:02.962Z,22
2023-10-10T12:39:03.567Z,23
2023-10-10T12:40:04.231Z,30
2023-10-10T12:42:04.099Z,21
2023-10-10T12:44:03.445Z,21
2023-10-10T12:45:03.879Z,21
2023-10-10T12:46:03.629Z,21
2023-10-10T12:47:03.369Z,21
2023-10-10T12:48:03.948Z,22
2023-10-10T12:50:04.030Z,21
2023-10-10T12:52:03.464Z,22
2023-10-10T12:53:03.374Z,22
2023-10-10T12:54:03.757Z,22
2023-10-10T12:55:03.904Z,24
2023-10-10T12:56:03.600Z,22
2023-10-10T12:58:04.348Z,22
2023-10-10T12:59:31.308Z,22
2023-10-10T13:01:02.986Z,25
2023-10-10T13:02:02.997Z,24
2023-10-10T13:03:03.350Z,22
2023-10-10T13:04:04.024Z,21
2023-10-10T13:06:03.536Z,21
2023-10-10T13:07:03.342Z,22
2023-10-10T13:08:03.044Z,23
2023-10-10T13:10:04.537Z,23
2023-10-10T13:12:03.525Z,24
2023-10-10T13:13:03.299Z,22
2023-10-10T13:14:02.925Z,24
2023-10-10T13:15:04.346Z,23
2023-10-10T13:16:03.542Z,23
2023-10-10T13:18:03.734Z,22
2023-10-10T13:20:03.621Z,22
2023-10-10T13:21:03.219Z,22
2023-10-10T13:22:02.955Z,24
2023-10-10T13:23:03.539Z,22
2023-10-10T13:24:03.610Z,25
2023-10-10T13:25:03.795Z,22
2023-10-10T13:26:03.455Z,22
2023-10-10T13:28:03.628Z,22
2023-10-10T13:29:03.305Z,21
2023-10-10T13:30:03.973Z,23
2023-10-10T13:31:03.984Z,22
2023-10-10T13:33:03.685Z,23
2023-10-10T13:35:03.972Z,22
2023-10-10T13:37:03.150Z,25
2023-10-10T13:38:03.044Z,23
2023-10-10T13:39:02.564Z,23
2023-10-10T13:40:04.022Z,25
2023-10-10T13:42:04.139Z,22
2023-10-10T13:44:03.130Z,23
2023-10-10T13:45:03.969Z,24
2023-10-10T13:47:03.029Z,22
2023-10-10T13:48:02.766Z,23
2023-10-10T13:49:03.470Z,23
2023-10-10T13:50:03.924Z,23
2023-10-10T13:51:03.684Z,30
2023-10-10T13:52:03.470Z,23
2023-10-10T13:53:02.974Z,23
2023-10-10T13:54:02.961Z,23
2023-10-10T13:55:02.976Z,24
2023-10-10T13:56:02.595Z,23
2023-10-10T13:57:03.207Z,24
2023-10-10T13:58:02.689Z,23
2023-10-10T13:59:03.800Z,24
2023-10-10T14:00:05.851Z,23
2023-10-10T14:02:04.341Z,23
2023-10-10T14:04:04.401Z,23
2023-10-10T14:05:03.464Z,24
2023-10-10T14:06:03.496Z,24
2023-10-10T14:07:03.095Z,24
2023-10-10T14:09:03.905Z,22
2023-10-10T14:10:04.951Z,23
2023-10-10T14:12:04.255Z,25
2023-10-10T14:14:03.563Z,24
2023-10-10T14:15:04.735Z,24
2023-10-10T14:17:03.638Z,26
2023-10-10T14:18:03.909Z,26
2023-10-10T14:19:03.919Z,24
2023-10-10T14:20:04.256Z,25
2023-10-10T14:22:03.806Z,24
2023-10-10T14:23:05.954Z,24
2023-10-10T14:25:04.511Z,24
2023-10-10T14:27:04.124Z,25
2023-10-10T14:29:03.155Z,24
2023-10-10T14:30:03.683Z,25
2023-10-10T14:31:02.986Z,25
2023-10-10T14:33:03.619Z,23
2023-10-10T14:34:04.071Z,24
2023-10-10T14:36:02.995Z,23
2023-10-10T14:38:02.441Z,27
2023-10-10T14:39:03.305Z,27
2023-10-10T14:40:04.215Z,26
2023-10-10T14:42:03.811Z,26
2023-10-10T14:43:03.222Z,28
2023-10-10T14:45:04.126Z,26
2023-10-10T14:47:02.996Z,25
2023-10-10T14:48:03.055Z,26
2023-10-10T14:49:03.381Z,26
2023-10-10T14:50:03.711Z,26
2023-10-10T14:51:03.147Z,25
2023-10-10T14:53:03.427Z,24
2023-10-10T14:54:04.403Z,24
2023-10-10T14:56:03.110Z,24
2023-10-10T14:58:03.629Z,24
2023-10-10T14:59:03.095Z,25
2023-10-10T15:00:04.164Z,25
2023-10-10T15:01:03.167Z,24
2023-10-10T15:03:03.676Z,24
2023-10-10T15:04:03.666Z,24
2023-10-10T15:05:04.089Z,24
2023-10-10T15:07:03.924Z,23
2023-10-10T15:08:03.828Z,24
2023-10-10T15:09:03.995Z,25
2023-10-10T15:10:03.879Z,24
2023-10-10T15:11:03.633Z,24
2023-10-10T15:12:03.913Z,25
2023-10-10T15:13:03.549Z,22
2023-10-10T15:14:02.969Z,24
2023-10-10T15:15:03.481Z,23
2023-10-10T15:16:03.307Z,23
2023-10-10T15:18:03.226Z,21
2023-10-10T15:19:02.760Z,21
2023-10-10T15:20:04.083Z,21
2023-10-10T15:22:03.252Z,21
2023-10-10T15:23:02.951Z,23
2023-10-10T15:24:03.766Z,21
2023-10-10T15:25:03.881Z,22
2023-10-10T15:26:03.672Z,21
2023-10-10T15:27:03.474Z,19
2023-10-10T15:29:02.615Z,19
2023-10-10T15:30:04.190Z,22
2023-10-10T15:32:03.419Z,20
2023-10-10T15:33:03.106Z,21
2023-10-10T15:35:03.998Z,23
2023-10-10T15:37:02.639Z,22
2023-10-10T15:38:03.384Z,21
2023-10-10T15:39:03.164Z,21
2023-10-10T15:40:04.873Z,22
2023-10-10T15:42:03.207Z,21
2023-10-10T15:43:02.700Z,21
2023-10-10T15:44:03.336Z,22
2023-10-10T15:45:03.868Z,22
2023-10-10T15:46:02.821Z,22
2023-10-10T15:47:03.389Z,21
2023-10-10T15:48:03.353Z,21
2023-10-10T15:49:03.039Z,59
2023-10-10T15:50:03.336Z,31
2023-10-10T15:51:02.948Z,23
2023-10-10T15:52:02.674Z,22
2023-10-10T15:53:03.455Z,20
2023-10-10T15:54:03.017Z,21
2023-10-10T15:55:03.271Z,23
2023-10-10T15:56:03.000Z,21
2023-10-10T15:57:02.741Z,21
2023-10-10T15:58:04.038Z,19
2023-10-10T16:00:05.425Z,21
2023-10-10T16:02:03.612Z,19
2023-10-10T16:03:03.270Z,21
2023-10-10T16:04:03.425Z,22
2023-10-10T16:05:03.724Z,22
2023-10-10T16:06:03.527Z,20
2023-10-10T16:08:10.723Z,21
2023-10-10T16:10:04.848Z,21
2023-10-10T16:12:03.130Z,23
2023-10-10T16:13:02.814Z,22
2023-10-10T16:14:03.448Z,21
2023-10-10T16:15:31.710Z,23
2023-10-10T16:17:04.650Z,21
2023-10-10T16:18:06.705Z,21
2023-10-10T16:20:04.183Z,21
2023-10-10T16:22:03.343Z,22
2023-10-10T16:23:02.873Z,21
2023-10-10T16:24:03.678Z,21
2023-10-10T16:25:03.894Z,21
2023-10-10T16:26:03.769Z,21
2023-10-10T16:27:04.004Z,21
2023-10-10T16:28:02.736Z,23
2023-10-10T16:29:03.387Z,22
2023-10-10T16:30:03.908Z,21
2023-10-10T16:32:03.297Z,26
2023-10-10T16:33:05.142Z,25
2023-10-10T16:35:03.603Z,23
2023-10-10T16:38:03.274Z,24
2023-10-10T16:39:02.779Z,24
2023-10-10T16:40:05.226Z,22
2023-10-10T16:42:03.164Z,19
2023-10-10T16:43:02.748Z,21
2023-10-10T16:44:03.609Z,21
2023-10-10T16:45:04.497Z,21
2023-10-10T16:46:03.292Z,24
2023-10-10T16:47:03.278Z,22
2023-10-10T16:48:03.646Z,23
2023-10-10T16:49:03.279Z,23
2023-10-10T16:50:03.314Z,22
2023-10-10T16:51:03.333Z,21
2023-10-10T16:53:12.361Z,22
2023-10-10T16:55:04.297Z,24
2023-10-10T16:57:03.684Z,24
2023-10-10T16:58:03.180Z,24
2023-10-10T17:00:04.287Z,21
2023-10-10T17:01:03.403Z,22
2023-10-10T17:03:03.195Z,23
2023-10-10T17:04:04.069Z,24
2023-10-10T17:06:03.241Z,22
2023-10-10T17:07:03.584Z,22
2023-10-10T17:08:03.469Z,24
2023-10-10T17:09:04.712Z,21
2023-10-10T17:10:05.016Z,21
2023-10-10T17:12:03.483Z,21
2023-10-10T17:13:03.046Z,26
2023-10-10T17:15:04.019Z,22
2023-10-10T17:17:03.269Z,23
2023-10-10T17:18:03.888Z,24
2023-10-10T17:19:18.738Z,23
2023-10-10T17:23:02.937Z,26
2023-10-10T17:24:04.141Z,23
2023-10-10T17:25:03.136Z,23
2023-10-10T17:27:03.059Z,24
2023-10-10T17:28:03.199Z,25
2023-10-10T17:29:03.286Z,24
2023-10-10T17:30:04.385Z,22
2023-10-10T17:32:03.542Z,22
2023-10-10T17:33:03.778Z,22
2023-10-10T17:35:04.270Z,21
2023-10-10T17:37:02.631Z,21
2023-10-10T17:38:03.288Z,22
2023-10-10T17:39:03.635Z,22
2023-10-10T17:40:04.225Z,21
2023-10-10T17:42:03.977Z,24
2023-10-10T17:44:03.303Z,26
2023-10-10T17:45:03.599Z,23
2023-10-10T17:46:03.314Z,24
2023-10-10T17:48:03.227Z,22
2023-10-10T17:49:03.246Z,22
2023-10-10T17:50:03.521Z,22
2023-10-10T17:51:03.476Z,22
2023-10-10T17:52:03.646Z,22
2023-10-10T17:54:03.524Z,23
2023-10-10T17:55:04.335Z,23
2023-10-10T17:57:03.114Z,24
2023-10-10T17:58:02.910Z,23
2023-10-10T17:59:03.801Z,22
2023-10-10T18:00:13.699Z,21
2023-10-10T18:02:03.972Z,21
2023-10-10T18:04:05.004Z,22
2023-10-10T18:05:03.155Z,21
2023-10-10T18:07:02.504Z,23
2023-10-10T18:08:03.319Z,22
2023-10-10T18:09:03.080Z,21
2023-10-10T18:10:05.200Z,22
2023-10-10T18:12:03.950Z,23
2023-10-10T18:14:03.117Z,24
2023-10-10T18:15:03.565Z,23
2023-10-10T18:18:03.913Z,23
2023-10-10T18:20:03.932Z,21
2023-10-10T18:21:03.829Z,22
2023-10-10T18:23:02.893Z,23
2023-10-10T18:24:03.787Z,19
2023-10-10T18:25:03.933Z,18
2023-10-10T18:26:03.488Z,21
2023-10-10T18:28:02.776Z,23
2023-10-10T18:29:03.416Z,21
2023-10-10T18:30:11.967Z,21